Time;durP1;ratioP1;P1;durP2;ratioP2;P2;SDS_P1;SDS_P2;PMS_P1;PMS_P2;Temp;Humidity;BMP_temperature;BMP_pressure;BME280_temperature;BME280_humidity;BME280_pressure;Samples;Min_cycle;Max_cycle;Signal;HPM_P1;HPM_P2
2023/09/28 00:01:18;;;;;;;;;14.00;12.67;;;;;22.50;62.73;101102.63;5032760;28;47737;-67
2023/09/28 00:03:45;;;;;;;;;15.33;12.67;;;;;22.59;62.75;101111.09;5039507;28;45435;-65
2023/09/28 00:06:11;;;;;;;;;15.00;13.67;;;;;22.53;62.75;101108.66;5039155;28;45426;-68
2023/09/28 00:08:36;;;;;;;;;13.67;11.33;;;;;22.49;62.71;101103.53;5039812;28;45454;-68
2023/09/28 00:11:03;;;;;;;;;13.00;12.33;;;;;22.54;62.72;101110.44;5039117;28;46083;-66
2023/09/28 00:13:29;;;;;;;;;15.00;13.00;;;;;22.48;62.44;101109.81;5054323;28;45364;-68
2023/09/28 00:15:54;;;;;;;;;13.67;12.67;;;;;22.49;62.81;101112.41;5059532;28;45421;-69
2023/09/28 00:18:23;;;;;;;;;12.67;11.67;;;;;22.48;62.54;101118.69;5059920;28;46163;-67
2023/09/28 00:20:49;;;;;;;;;12.33;11.33;;;;;22.46;62.59;101123.22;5059623;28;46220;-67
2023/09/28 00:23:16;;;;;;;;;11.67;10.33;;;;;22.46;62.61;101122.34;5042011;28;45453;-67
2023/09/28 00:25:42;;;;;;;;;15.67;12.33;;;;;22.43;62.54;101124.22;5060037;28;45483;-67
2023/09/28 00:28:08;;;;;;;;;14.33;12.33;;;;;22.32;62.50;101106.91;5060281;28;45318;-68
2023/09/28 00:30:34;;;;;;;;;13.33;11.33;;;;;22.21;62.86;101097.53;5059302;28;46098;-69
2023/09/28 00:32:59;;;;;;;;;11.67;10.33;;;;;22.37;62.80;101126.25;5058520;28;45535;-66
2023/09/28 00:35:27;;;;;;;;;13.00;11.67;;;;;22.36;62.87;101137.88;5059316;28;45518;-65
2023/09/28 00:37:54;;;;;;;;;10.33;8.67;;;;;22.28;62.89;101134.63;5060464;28;45816;-66
2023/09/28 00:40:31;;;;;;;;;13.33;11.33;;;;;22.32;62.84;101152.25;5047599;28;46897;-67
2023/09/28 00:42:57;;;;;;;;;11.00;11.00;;;;;22.28;63.36;101156.88;5040181;28;45814;-66
2023/09/28 00:45:25;;;;;;;;;14.67;13.33;;;;;22.18;62.79;101140.28;5058846;28;45529;-68
2023/09/28 00:47:53;;;;;;;;;9.00;8.00;;;;;22.23;63.10;101158.81;5059168;28;45477;-67
2023/09/28 00:50:20;;;;;;;;;14.00;10.00;;;;;22.20;62.89;101153.59;5059030;28;45403;-66
2023/09/28 00:52:49;;;;;;;;;19.00;15.67;;;;;22.26;63.45;101164.06;5041047;28;45511;-68
2023/09/28 00:55:18;;;;;;;;;16.33;11.33;;;;;22.09;63.07;101130.03;5041045;28;45847;-67
2023/09/28 00:57:44;;;;;;;;;12.67;11.67;;;;;22.15;62.91;101136.91;5057432;28;45518;-67
2023/09/28 01:00:26;;;;;;;;;10.00;10.00;;;;;22.28;62.96;101162.19;5059791;28;45427;-66
2023/09/28 01:02:54;;;;;;;;;14.00;11.67;;;;;22.27;62.69;101165.78;5058211;28;45527;-67
2023/09/28 01:05:30;;;;;;;;;12.33;10.33;;;;;22.27;62.69;101160.44;5058817;28;45579;-68
2023/09/28 01:08:05;;;;;;;;;12.67;11.67;;;;;22.21;63.22;101142.03;5058516;28;45553;-68
2023/09/28 01:10:35;;;;;;;;;8.00;8.00;;;;;22.14;63.15;101159.16;5053910;28;45415;-66
2023/09/28 01:13:05;;;;;;;;;11.33;10.00;;;;;22.12;63.24;101151.22;5048223;28;45594;-66
2023/09/28 01:15:32;;;;;;;;;11.67;11.33;;;;;21.98;63.68;101133.09;5057840;28;45463;-70
2023/09/28 01:17:58;;;;;;;;;10.33;10.00;;;;;21.99;63.76;101145.50;5059404;28;45541;-66
2023/09/28 01:20:34;;;;;;;;;9.67;9.67;;;;;21.91;63.63;101115.59;5059462;28;45447;-66
2023/09/28 01:23:00;;;;;;;;;8.67;8.00;;;;;21.89;63.84;101121.91;5059305;28;45425;-68
2023/09/28 01:25:26;;;;;;;;;11.00;8.00;;;;;21.88;63.88;101128.16;5040465;28;45351;-68
2023/09/28 01:27:54;;;;;;;;;11.00;10.33;;;;;21.90;63.86;101132.53;5058811;28;45366;-66
2023/09/28 01:30:20;;;;;;;;;11.67;8.67;;;;;21.83;63.75;101128.38;5058456;28;45486;-67
2023/09/28 01:32:46;;;;;;;;;10.67;10.00;;;;;21.89;63.83;101148.59;5056398;28;45361;-67
2023/09/28 01:35:12;;;;;;;;;8.33;7.67;;;;;21.86;63.89;101141.59;5058032;28;45442;-67
2023/09/28 01:38:10;;;;;;;;;8.67;8.67;;;;;21.90;63.63;101155.66;5058378;28;45396;-67
2023/09/28 01:40:38;;;;;;;;;8.33;8.33;;;;;21.91;63.79;101160.94;5057248;28;47231;-67
2023/09/28 01:43:04;;;;;;;;;11.67;9.33;;;;;21.78;64.15;101138.31;5044350;28;45484;-67
2023/09/28 01:45:29;;;;;;;;;8.67;8.67;;;;;21.81;63.98;101154.22;5057521;28;45545;-68
2023/09/28 01:47:55;;;;;;;;;8.33;8.00;;;;;21.91;63.90;101163.59;5059447;28;45315;-66
2023/09/28 01:50:21;;;;;;;;;10.00;10.00;;;;;21.88;64.10;101169.06;5058858;28;46302;-67
2023/09/28 01:52:47;;;;;;;;;12.00;12.00;;;;;21.78;64.36;101163.22;5039395;28;45354;-65
2023/09/28 01:55:12;;;;;;;;;10.67;10.67;;;;;21.81;64.35;101175.56;5058070;28;45376;-66
2023/09/28 01:57:38;;;;;;;;;12.33;11.00;;;;;21.67;64.59;101160.06;5054847;28;45477;-68
2023/09/28 02:00:18;;;;;;;;;9.67;7.67;;;;;21.74;64.43;101190.03;5052958;28;45871;-67
2023/09/28 02:02:44;;;;;;;;;12.33;10.33;;;;;21.73;64.56;101186.47;5036543;28;45228;-67
2023/09/28 02:05:12;;;;;;;;;10.00;9.00;;;;;21.61;64.83;101160.28;5048770;28;45415;-66
2023/09/28 02:07:38;;;;;;;;;12.33;9.33;;;;;21.62;65.07;101188.69;5048783;28;45355;-68
2023/09/28 02:10:05;;;;;;;;;10.67;9.67;;;;;21.63;64.82;101178.91;5043495;28;45402;-66
2023/09/28 02:12:33;;;;;;;;;16.67;10.33;;;;;21.55;65.07;101177.38;5057499;28;45545;-68
2023/09/28 02:15:04;;;;;;;;;10.33;8.67;;;;;21.59;64.89;101179.03;5057461;28;45573;-68
2023/09/28 02:17:33;;;;;;;;;9.67;8.00;;;;;21.67;64.75;101177.88;5051123;28;45323;-69
2023/09/28 02:19:58;;;;;;;;;8.00;6.67;;;;;21.70;64.80;101181.28;5037611;28;45455;-68
2023/09/28 02:22:24;;;;;;;;;8.67;8.67;;;;;21.60;65.05;101164.75;5042926;28;45450;-67
2023/09/28 02:24:51;;;;;;;;;10.67;9.33;;;;;21.58;64.84;101163.06;5056643;28;45419;-69
2023/09/28 02:27:19;;;;;;;;;10.33;9.00;;;;;21.58;64.68;101150.63;5057668;28;45480;-67
2023/09/28 02:29:45;;;;;;;;;10.33;8.33;;;;;21.68;64.56;101166.25;5057330;28;46097;-72
2023/09/28 02:32:13;;;;;;;;;8.67;7.33;;;;;21.57;64.75;101161.34;5057256;28;45770;-70
2023/09/28 02:34:39;;;;;;;;;9.33;8.00;;;;;21.75;64.71;101183.78;5050419;28;45391;-71
2023/09/28 02:37:05;;;;;;;;;11.00;10.00;;;;;21.77;64.59;101182.78;5019524;28;45513;-72
2023/09/28 02:39:36;;;;;;;;;8.00;8.00;;;;;21.70;64.40;101164.41;5056594;28;46127;-69
2023/09/28 02:42:07;;;;;;;;;7.00;7.00;;;;;21.74;64.33;101179.38;5057232;28;45349;-69
2023/09/28 02:44:35;;;;;;;;;8.00;8.00;;;;;21.73;64.62;101170.50;5056861;28;45438;-72
2023/09/28 02:47:07;;;;;;;;;7.00;7.00;;;;;21.58;64.06;101155.94;5057455;28;45415;-70
2023/09/28 02:49:32;;;;;;;;;11.00;9.00;;;;;21.57;64.70;101159.56;5038675;28;46678;-71
2023/09/28 02:51:59;;;;;;;;;12.33;9.00;;;;;21.58;65.04;101158.59;5055679;28;45648;-69
2023/09/28 02:54:26;;;;;;;;;11.00;8.33;;;;;21.54;65.01;101154.31;5057564;28;45292;-71
2023/09/28 02:56:52;;;;;;;;;8.00;8.00;;;;;21.60;65.03;101170.09;5055718;28;45362;-70
2023/09/28 02:59:21;;;;;;;;;8.00;8.00;;;;;21.58;65.27;101174.59;5056441;28;45467;-68
2023/09/28 03:01:47;;;;;;;;;10.33;7.33;;;;;21.59;64.87;101162.13;5049647;28;45446;-73
2023/09/28 03:04:13;;;;;;;;;10.00;8.00;;;;;21.63;64.80;101165.56;5036672;28;45423;-71
2023/09/28 03:06:39;;;;;;;;;7.00;7.00;;;;;21.58;65.00;101166.59;5036245;28;45546;-73
2023/09/28 03:09:06;;;;;;;;;7.67;7.67;;;;;21.54;64.86;101174.78;5036283;28;45544;-73
2023/09/28 03:11:32;;;;;;;;;10.33;8.00;;;;;21.60;65.09;101195.88;5052122;28;45371;-71
2023/09/28 03:13:58;;;;;;;;;8.33;7.33;;;;;21.60;64.92;101183.41;5057072;28;45477;-70
2023/09/28 03:16:23;;;;;;;;;9.67;7.67;;;;;21.59;64.85;101170.13;5039871;28;45489;-71
2023/09/28 03:18:49;;;;;;;;;11.00;7.00;;;;;21.63;64.89;101181.56;5056761;28;46163;-70
2023/09/28 03:21:15;;;;;;;;;7.67;6.00;;;;;21.65;65.13;101195.72;5056668;28;45438;-71
2023/09/28 03:23:40;;;;;;;;;6.00;6.00;;;;;21.53;64.92;101184.56;5056629;28;45453;-71
2023/09/28 03:26:12;;;;;;;;;9.67;7.67;;;;;21.58;64.96;101187.06;5057279;28;45421;-73
2023/09/28 03:28:38;;;;;;;;;9.00;8.67;;;;;21.35;64.72;101148.75;5055005;28;47971;-71
2023/09/28 03:31:06;;;;;;;;;9.00;7.33;;;;;21.70;65.00;101201.75;5056797;28;45446;-73
2023/09/28 03:33:31;;;;;;;;;12.00;7.33;;;;;21.70;64.52;101212.41;5057689;28;45382;-70
2023/09/28 03:35:57;;;;;;;;;7.00;6.67;;;;;21.13;64.67;101132.69;5057974;28;45473;-73
2023/09/28 03:38:23;;;;;;;;;7.67;7.00;;;;;21.63;65.04;101209.09;5045237;28;45554;-71
2023/09/28 03:40:52;;;;;;;;;12.67;6.67;;;;;21.54;64.71;101193.41;5056832;28;45524;-72
2023/09/28 03:43:18;;;;;;;;;8.67;7.67;;;;;21.58;65.00;101213.72;5057295;28;45521;-70
2023/09/28 03:45:44;;;;;;;;;9.67;7.67;;;;;21.50;64.83;101190.00;5056100;28;45491;-70
2023/09/28 03:48:26;;;;;;;;;13.33;9.00;;;;;21.60;65.05;101212.72;5156143;27;45540;-68
2023/09/28 03:50:52;;;;;;;;;10.67;9.67;;;;;21.49;65.12;101206.06;5151203;27;45754;-69
2023/09/28 03:53:18;;;;;;;;;7.67;6.00;;;;;21.45;64.92;101197.31;5135398;27;45231;-71
2023/09/28 03:55:49;;;;;;;;;7.33;7.33;;;;;21.10;65.62;101145.25;5135734;27;45544;-70
2023/09/28 03:58:17;;;;;;;;;9.33;7.00;;;;;21.50;65.34;101219.34;5135245;27;46263;-71
2023/09/28 04:00:43;;;;;;;;;7.33;7.33;;;;;21.21;65.29;101163.50;5133781;27;45551;-72
2023/09/28 04:06:44;;;;;;;;;7.67;6.33;;;;;21.09;64.89;101131.03;5099357;27;45544;-71
2023/09/28 04:09:11;;;;;;;;;6.33;6.33;;;;;21.68;62.70;101227.56;5128712;27;45376;-70
2023/09/28 04:11:37;;;;;;;;;8.67;5.33;;;;;21.63;62.11;101205.56;5121150;27;45420;-69
2023/09/28 04:14:07;;;;;;;;;5.00;5.00;;;;;21.71;60.64;101225.69;5117631;27;45542;-69
2023/09/28 04:16:33;;;;;;;;;4.33;4.33;;;;;21.69;60.85;101218.63;5120730;27;45371;-71
2023/09/28 04:18:59;;;;;;;;;4.33;4.33;;;;;21.77;59.81;101232.56;5118389;27;46711;-69
2023/09/28 04:21:29;;;;;;;;;6.33;4.33;;;;;21.71;58.92;101227.47;5127763;27;45414;-71
2023/09/28 04:23:54;;;;;;;;;4.00;4.00;;;;;21.17;59.47;101157.44;5132635;27;45463;-68
2023/09/28 04:26:20;;;;;;;;;4.00;4.00;;;;;21.74;58.62;101230.91;5134749;27;45806;-69
2023/09/28 04:28:46;;;;;;;;;6.00;3.00;;;;;21.77;58.13;101243.25;5124225;27;46406;-70
2023/09/28 04:31:11;;;;;;;;;5.33;2.33;;;;;21.69;57.61;101232.88;5124328;27;45427;-70
2023/09/28 04:33:37;;;;;;;;;5.00;4.50;;;;;21.52;56.91;101209.50;5134470;27;45662;-69
2023/09/28 04:36:03;;;;;;;;;2.33;2.33;;;;;21.77;57.62;101256.56;5123843;27;45449;-69
2023/09/28 04:38:29;;;;;;;;;1.75;1.75;;;;;21.54;56.88;101217.41;5121746;27;45524;-68
2023/09/28 04:40:54;;;;;;;;;2.25;2.00;;;;;21.62;56.69;101233.13;5131821;27;45462;-70
2023/09/28 04:43:23;;;;;;;;;5.00;1.67;;;;;21.64;56.22;101239.28;5122632;27;45471;-72
2023/09/28 04:45:53;;;;;;;;;4.00;3.00;;;;;21.69;56.36;101243.53;5133696;27;45343;-72
2023/09/28 04:48:24;;;;;;;;;5.25;2.25;;;;;21.71;56.09;101249.69;5132521;27;47212;-71
2023/09/28 04:50:49;;;;;;;;;1.00;1.00;;;;;21.76;55.38;101254.84;5125690;27;45560;-69
2023/09/28 04:53:16;;;;;;;;;2.00;2.00;;;;;21.63;55.01;101224.22;5129139;27;45443;-70
2023/09/28 04:55:41;;;;;;;;;4.67;1.00;;;;;21.59;55.75;101231.44;5131499;27;45477;-72
2023/09/28 04:58:08;;;;;;;;;2.00;1.25;;;;;21.65;55.41;101241.03;5124748;27;45830;-71
2023/09/28 05:00:34;;;;;;;;;5.25;2.00;;;;;21.71;55.40;101256.78;5119020;27;45167;-70
2023/09/28 05:03:03;;;;;;;;;4.67;2.00;;;;;21.70;55.54;101253.25;5108142;27;45385;-72
2023/09/28 05:05:29;;;;;;;;;3.00;1.50;;;;;21.61;54.68;101234.91;5120252;27;45367;-71
2023/09/28 05:07:54;;;;;;;;;3.00;2.00;;;;;21.42;55.16;101208.06;5105194;27;45493;-72
2023/09/28 05:10:20;;;;;;;;;1.00;1.00;;;;;21.62;55.25;101249.09;5120423;27;45484;-71
2023/09/28 05:12:46;;;;;;;;;4.50;2.25;;;;;21.64;55.30;101260.59;5119416;27;45529;-72
2023/09/28 05:15:13;;;;;;;;;3.25;2.00;;;;;21.66;55.15;101256.94;5115587;27;45439;-72
2023/09/28 05:18:23;;;;;;;;;1.50;1.00;;;;;21.54;55.02;101250.25;5111750;27;46217;-73
2023/09/28 05:20:50;;;;;;;;;1.00;1.00;;;;;21.57;54.90;101258.16;5107134;27;45534;-70
2023/09/28 05:23:16;;;;;;;;;3.00;2.00;;;;;21.35;55.01;101222.50;5114955;27;45351;-73
2023/09/28 05:25:43;;;;;;;;;3.25;3.00;;;;;21.59;54.93;101272.31;5120272;27;45418;-71
2023/09/28 05:28:21;;;;;;;;;4.67;4.00;;;;;21.61;54.56;101274.91;5119872;27;46092;-71
2023/09/28 05:30:47;;;;;;;;;5.00;3.33;;;;;21.24;54.77;101211.38;5119601;27;45262;-71
2023/09/28 05:33:13;;;;;;;;;6.00;5.00;;;;;21.58;55.02;101272.34;5119849;27;45516;-70
2023/09/28 05:35:38;;;;;;;;;7.67;5.67;;;;;21.47;54.99;101262.06;5112759;27;45377;-70
2023/09/28 05:38:04;;;;;;;;;6.00;4.00;;;;;21.54;55.20;101282.25;5119761;27;45589;-72
2023/09/28 05:40:32;;;;;;;;;5.67;4.00;;;;;21.41;55.39;101282.75;5119343;27;45412;-72
2023/09/28 05:42:58;;;;;;;;;5.67;3.33;;;;;21.41;55.76;101275.63;5117545;27;46185;-71
2023/09/28 05:45:23;;;;;;;;;4.75;3.25;;;;;21.24;55.42;101256.66;5115800;27;45494;-71
2023/09/28 05:47:49;;;;;;;;;4.67;2.00;;;;;21.14;55.37;101238.31;5117766;27;46288;-71
2023/09/28 05:50:15;;;;;;;;;4.33;2.33;;;;;21.44;54.79;101293.28;5114566;27;45246;-71
2023/09/28 05:52:41;;;;;;;;;4.50;2.00;;;;;21.42;54.92;101309.31;5118804;27;45881;-71
2023/09/28 05:55:16;;;;;;;;;3.50;2.00;;;;;21.15;55.52;101290.66;5116245;27;45319;-71
2023/09/28 05:57:42;;;;;;;;;2.33;2.00;;;;;21.39;55.22;101318.28;5105547;27;46798;-71
2023/09/28 06:00:09;;;;;;;;;4.33;3.67;;;;;21.44;54.90;101310.13;5120739;27;45472;-71
2023/09/28 06:02:36;;;;;;;;;4.00;3.67;;;;;21.47;54.54;101290.50;5112707;27;45400;-72
2023/09/28 06:05:01;;;;;;;;;4.00;3.00;;;;;21.03;54.49;101228.94;5116405;27;45444;-71
2023/09/28 06:07:28;;;;;;;;;5.00;4.00;;;;;21.49;54.59;101315.31;5114116;27;46034;-71
2023/09/28 06:09:54;;;;;;;;;5.33;2.33;;;;;21.41;54.07;101304.94;5116988;27;45329;-70
2023/09/28 06:12:19;;;;;;;;;2.00;2.00;;;;;21.20;54.32;101268.31;5121052;27;45318;-71
2023/09/28 06:14:54;;;;;;;;;4.00;2.33;;;;;21.39;54.38;101304.06;5116872;27;45250;-69
2023/09/28 06:17:20;;;;;;;;;5.25;2.50;;;;;21.21;53.88;101262.06;5116799;27;45502;-72
2023/09/28 06:19:46;;;;;;;;;2.50;2.00;;;;;21.44;53.94;101295.94;5116657;27;45743;-72
2023/09/28 06:22:12;;;;;;;;;5.67;3.00;;;;;21.47;53.33;101301.16;5117545;27;45691;-72
2023/09/28 06:24:40;;;;;;;;;5.00;2.00;;;;;21.52;53.59;101313.44;5120285;27;45584;-71
2023/09/28 06:27:06;;;;;;;;;4.25;1.25;;;;;20.79;53.10;101207.53;5120869;27;46716;-71
2023/09/28 06:29:32;;;;;;;;;4.33;3.00;;;;;21.29;53.59;101299.97;5119618;27;45372;-71
2023/09/28 06:31:59;;;;;;;;;1.33;1.33;;;;;21.31;53.40;101292.81;5106442;27;45429;-72
2023/09/28 06:34:24;;;;;;;;;5.00;2.00;;;;;21.55;52.99;101328.44;5103551;27;45481;-70
2023/09/28 06:36:50;;;;;;;;;4.00;4.00;;;;;21.57;52.90;101324.81;5112532;27;45576;-70
2023/09/28 06:39:16;;;;;;;;;2.00;2.00;;;;;21.59;52.95;101322.97;5104918;27;45427;-70
2023/09/28 06:41:42;;;;;;;;;3.50;2.00;;;;;21.67;52.83;101335.16;5106083;27;45405;-68
2023/09/28 06:44:08;;;;;;;;;6.00;3.00;;;;;21.58;52.58;101318.53;5116741;27;46081;-69
2023/09/28 06:47:01;;;;;;;;;3.00;3.00;;;;;21.62;53.01;101329.06;5106147;27;46597;-69
2023/09/28 06:49:28;;;;;;;;;8.33;4.00;;;;;21.63;53.00;101334.38;5103326;27;45641;-68
2023/09/28 06:51:58;;;;;;;;;2.33;2.33;;;;;21.63;52.76;101337.03;5116087;27;45493;-70
2023/09/28 06:54:24;;;;;;;;;4.00;2.33;;;;;21.61;52.64;101346.88;5116115;27;45317;-69
2023/09/28 06:56:51;;;;;;;;;2.50;1.75;;;;;21.57;53.13;101324.81;5112919;27;45317;-69
2023/09/28 06:59:17;;;;;;;;;4.33;2.67;;;;;21.59;53.12;101338.94;5112673;27;45371;-71
2023/09/28 07:01:43;;;;;;;;;4.67;3.33;;;;;21.45;53.07;101333.22;5119063;27;45353;-69
2023/09/28 07:04:08;;;;;;;;;1.33;1.33;;;;;21.34;53.21;101325.53;5119192;27;45326;-70
2023/09/28 07:06:34;;;;;;;;;6.33;3.00;;;;;21.44;53.48;101341.25;5119042;27;45615;-69
2023/09/28 07:09:00;;;;;;;;;3.00;2.67;;;;;21.46;53.12;101321.63;5118601;27;45379;-71
2023/09/28 07:11:28;;;;;;;;;4.33;2.00;;;;;21.57;52.74;101322.13;5118643;27;45808;-69
2023/09/28 07:13:54;;;;;;;;;2.00;2.00;;;;;21.69;52.70;101327.94;5118553;27;45246;-70
2023/09/28 07:16:20;;;;;;;;;6.67;3.00;;;;;21.80;52.18;101337.31;5118172;27;45306;-70
2023/09/28 07:18:45;;;;;;;;;2.00;2.00;;;;;21.80;52.12;101336.44;5117720;27;45353;-71
2023/09/28 07:21:11;;;;;;;;;5.33;2.00;;;;;21.85;52.28;101345.16;5117822;27;45455;-69
2023/09/28 07:23:41;;;;;;;;;4.00;2.33;;;;;21.70;52.04;101316.38;5118317;27;45383;-70
2023/09/28 07:26:16;;;;;;;;;2.67;2.00;;;;;21.96;51.80;101350.09;5113617;27;46676;-69
2023/09/28 07:28:45;;;;;;;;;5.33;5.33;;;;;21.99;51.52;101356.19;5116120;27;45846;-71
2023/09/28 07:31:12;;;;;;;;;4.67;3.00;;;;;22.02;52.32;101374.78;5116427;27;46075;-69
2023/09/28 07:33:39;;;;;;;;;3.00;2.33;;;;;21.99;51.80;101377.53;5121647;27;45555;-72
2023/09/28 07:36:05;;;;;;;;;5.50;1.00;;;;;22.11;51.23;101400.22;5134098;27;47608;-72
2023/09/28 07:38:33;;;;;;;;;3.75;2.00;;;;;22.12;51.16;101390.47;5118097;27;45379;-71
2023/09/28 07:41:00;;;;;;;;;2.67;2.67;;;;;22.23;50.86;101404.28;5118007;27;45343;-70
2023/09/28 07:43:26;;;;;;;;;4.33;3.00;;;;;22.16;51.00;101366.28;5118480;27;45242;-73
2023/09/28 07:45:51;;;;;;;;;5.50;2.50;;;;;22.34;50.60;101380.75;5109722;27;45429;-73
2023/09/28 07:48:17;;;;;;;;;5.25;2.25;;;;;22.34;50.61;101391.44;5115432;27;45404;-73
2023/09/28 07:50:43;;;;;;;;;3.00;2.00;;;;;22.28;49.82;101382.78;5120149;27;45661;-71
2023/09/28 07:53:08;;;;;;;;;2.50;2.50;;;;;22.36;49.57;101386.06;5112486;27;45384;-71
2023/09/28 07:55:34;;;;;;;;;3.00;2.00;;;;;22.53;49.15;101402.31;5114498;27;46394;-70
2023/09/28 07:58:00;;;;;;;;;3.25;2.50;;;;;22.50;48.77;101388.22;5114600;27;45611;-72
2023/09/28 08:00:27;;;;;;;;;2.00;1.00;;;;;22.52;48.97;101381.88;5114786;27;45469;-73
2023/09/28 08:02:52;;;;;;;;;3.33;3.33;;;;;22.61;48.71;101388.66;5117014;27;45891;-76
2023/09/28 08:05:18;;;;;;;;;2.25;1.50;;;;;22.72;48.88;101406.97;5116856;27;46108;-74
2023/09/28 08:07:44;;;;;;;;;4.25;3.25;;;;;22.74;48.51;101389.94;5124628;27;45514;-75
2023/09/28 08:10:09;;;;;;;;;8.67;4.00;;;;;22.87;48.30;101409.03;5118030;27;45307;-77
2023/09/28 08:12:37;;;;;;;;;9.00;2.00;;;;;22.92;48.32;101408.84;5116223;27;45805;-67
2023/09/28 08:15:04;;;;;;;;;5.00;4.00;;;;;22.85;48.39;101405.53;5115533;27;45627;-67
2023/09/28 08:17:33;;;;;;;;;3.25;2.75;;;;;22.76;49.11;101403.25;5113269;27;45683;-68
2023/09/28 08:19:59;;;;;;;;;3.50;2.50;;;;;22.72;49.11;101383.78;5115037;27;45257;-73
2023/09/28 08:22:26;;;;;;;;;5.50;2.00;;;;;22.82;48.09;101378.97;5116267;27;45617;-76
2023/09/28 08:24:51;;;;;;;;;1.25;1.25;;;;;22.56;47.18;101323.91;5116806;27;46202;-76
2023/09/28 08:27:17;;;;;;;;;3.00;3.00;;;;;22.98;47.58;101419.31;5117172;27;45404;-77
2023/09/28 08:29:43;;;;;;;;;3.00;1.00;;;;;22.85;47.57;101406.44;5116321;27;45550;-69
2023/09/28 08:32:08;;;;;;;;;5.25;3.00;;;;;22.85;47.85;101413.56;5117235;27;45460;-72
2023/09/28 08:34:34;;;;;;;;;2.50;2.50;;;;;23.02;46.89;101419.16;5118474;27;45511;-69
2023/09/28 08:37:03;;;;;;;;;3.50;2.25;;;;;23.27;46.66;101435.06;5134377;27;45572;-69
2023/09/28 08:39:32;;;;;;;;;3.50;2.25;;;;;23.45;48.11;101444.19;5118325;27;45480;-69
2023/09/28 08:42:02;;;;;;;;;4.75;2.00;;;;;23.40;47.13;101446.16;5116901;27;46478;-68
2023/09/28 08:44:37;;;;;;;;;2.50;2.00;;;;;23.34;46.64;101424.16;5106494;27;46096;-69
2023/09/28 08:47:20;;;;;;;;;4.00;2.00;;;;;23.57;46.86;101441.94;5110317;27;45508;-69
2023/09/28 08:49:48;;;;;;;;;2.00;2.00;;;;;23.45;46.29;101387.16;5114835;27;45421;-69
2023/09/28 08:52:17;;;;;;;;;1.75;1.50;;;;;23.77;46.51;101430.44;5130224;27;45317;-68
2023/09/28 08:54:42;;;;;;;;;2.50;2.00;;;;;24.06;46.04;101450.59;5111596;27;45752;-69
2023/09/28 08:57:09;;;;;;;;;3.00;3.00;;;;;24.23;45.44;101433.81;5110927;27;45606;-68
2023/09/28 08:59:37;;;;;;;;;2.25;2.00;;;;;24.47;44.49;101435.44;5117401;27;45411;-71
2023/09/28 09:02:06;;;;;;;;;3.50;2.00;;;;;24.47;43.99;101431.88;5117737;27;45470;-72
2023/09/28 09:04:38;;;;;;;;;2.50;2.00;;;;;24.41;43.28;101419.59;5114031;27;46345;-71
2023/09/28 09:07:05;;;;;;;;;3.00;1.75;;;;;23.93;43.17;101380.69;5112096;27;45445;-69
2023/09/28 09:09:40;;;;;;;;;3.75;3.00;;;;;24.01;44.04;101407.09;5116260;27;45398;-68
2023/09/28 09:12:09;;;;;;;;;3.75;1.00;;;;;24.17;43.90;101399.28;5108615;27;45486;-69
2023/09/28 09:14:35;;;;;;;;;4.00;2.00;;;;;24.41;43.57;101398.19;5116977;27;47302;-69
2023/09/28 09:17:00;;;;;;;;;2.25;2.00;;;;;24.69;43.98;101411.19;5112191;27;45505;-67
2023/09/28 09:19:30;;;;;;;;;4.00;1.50;;;;;24.70;43.40;101387.97;5116790;27;45379;-69
2023/09/28 09:21:57;;;;;;;;;2.50;1.75;;;;;24.99;43.87;101391.97;5115937;27;45546;-69
2023/09/28 09:24:26;;;;;;;;;3.00;0.50;;;;;25.11;43.04;101387.81;5118211;27;46238;-69
2023/09/28 09:26:53;;;;;;;;;3.20;1.00;;;;;25.12;43.42;101368.09;5113345;27;45623;-68
2023/09/28 09:29:19;;;;;;;;;1.25;1.25;;;;;25.49;42.41;101407.41;5114189;27;46450;-67
2023/09/28 09:31:50;;;;;;;;;4.50;2.00;;;;;25.59;42.15;101397.09;5116749;27;45734;-70
2023/09/28 09:34:18;;;;;;;;;4.25;2.00;;;;;25.66;43.22;101398.50;5118597;27;46171;-69
2023/09/28 09:37:00;;;;;;;;;2.60;2.40;;;;;25.84;41.83;101406.56;5118698;27;45220;-68
2023/09/28 09:39:29;;;;;;;;;1.50;1.25;;;;;25.98;41.02;101417.47;5107163;27;45511;-69
2023/09/28 09:41:56;;;;;;;;;6.00;1.50;;;;;26.10;41.45;101398.06;5118686;27;45531;-68
2023/09/28 09:44:24;;;;;;;;;6.00;2.00;;;;;26.32;39.89;101413.91;5115647;27;46341;-69
2023/09/28 09:46:52;;;;;;;;;1.20;1.00;;;;;26.17;39.87;101406.66;5119704;27;45596;-69
2023/09/28 09:49:26;;;;;;;;;3.75;2.50;;;;;25.93;39.77;101388.19;5117263;27;45324;-68
2023/09/28 09:51:53;;;;;;;;;3.50;2.00;;;;;25.94;40.88;101403.38;5114954;27;45344;-68
2023/09/28 09:54:24;;;;;;;;;4.00;1.50;;;;;25.81;40.27;101416.50;5120152;27;45247;-68
2023/09/28 09:56:50;;;;;;;;;3.25;3.00;;;;;26.00;40.92;101429.88;5119289;27;45246;-68
2023/09/28 09:59:21;;;;;;;;;4.00;2.25;;;;;26.06;40.27;101407.22;5119537;27;45433;-68
2023/09/28 10:01:52;;;;;;;;;8.50;2.50;;;;;25.76;39.90;101385.50;5108962;27;45557;-68
2023/09/28 10:04:19;;;;;;;;;4.25;2.25;;;;;25.71;40.22;101400.97;5118931;27;46368;-68
2023/09/28 10:06:51;;;;;;;;;3.20;2.20;;;;;25.86;40.08;101402.88;5119747;27;45465;-69
2023/09/28 10:09:19;;;;;;;;;5.00;1.00;;;;;25.88;40.62;101408.19;5120011;27;45420;-69
2023/09/28 10:11:49;;;;;;;;;2.00;1.75;;;;;25.97;40.23;101384.41;5119763;27;45458;-70
2023/09/28 10:14:21;;;;;;;;;4.50;2.25;;;;;25.91;39.81;101405.31;5102531;27;46275;-71
2023/09/28 10:16:53;;;;;;;;;2.00;2.00;;;;;25.79;39.62;101406.78;5111733;27;45577;-69
2023/09/28 10:19:23;;;;;;;;;4.50;3.00;;;;;25.69;39.80;101409.06;5114943;27;45379;-69
2023/09/28 10:21:51;;;;;;;;;1.50;1.50;;;;;25.57;40.43;101389.09;5132668;27;45501;-68
2023/09/28 10:24:17;;;;;;;;;5.75;2.75;;;;;25.66;40.44;101393.16;5119854;27;45392;-70
2023/09/28 10:26:52;;;;;;;;;4.00;4.00;;;;;25.28;40.40;101387.03;5120373;27;45545;-69
2023/09/28 10:29:20;;;;;;;;;4.00;3.00;;;;;25.08;41.42;101385.25;5136979;27;45517;-70
2023/09/28 10:31:46;;;;;;;;;2.75;2.25;;;;;25.05;41.11;101388.97;5117508;27;45399;-72
2023/09/28 10:34:20;;;;;;;;;3.00;3.00;;;;;24.88;40.81;101396.94;5105971;27;45584;-71
2023/09/28 10:37:11;;;;;;;;;2.50;2.00;;;;;24.86;41.33;101391.66;5105573;27;45363;-70
2023/09/28 10:39:42;;;;;;;;;3.50;3.50;;;;;25.10;40.65;101368.16;5084481;27;45372;-71
2023/09/28 10:42:12;;;;;;;;;5.00;1.50;;;;;25.47;40.45;101393.19;5115613;27;45278;-71
2023/09/28 10:44:53;;;;;;;;;4.50;2.25;;;;;25.51;39.62;101372.47;5100051;27;45687;-72
2023/09/28 10:47:21;;;;;;;;;5.00;4.00;;;;;25.51;39.28;101377.84;5115505;27;45423;-71
2023/09/28 10:49:52;;;;;;;;;4.50;3.25;;;;;25.31;39.10;101368.97;5119417;27;45482;-70
2023/09/28 10:52:17;;;;;;;;;5.00;2.75;;;;;25.06;39.40;101388.03;5105050;27;45412;-70
2023/09/28 10:54:44;;;;;;;;;5.00;3.00;;;;;24.78;40.07;101366.19;5119600;27;45446;-70
2023/09/28 10:57:10;;;;;;;;;3.75;3.25;;;;;24.79;38.99;101370.59;5118951;27;45403;-71
2023/09/28 10:59:41;;;;;;;;;6.25;2.75;;;;;24.62;40.13;101366.03;5119298;27;45480;-70
2023/09/28 11:02:08;;;;;;;;;7.00;3.00;;;;;24.81;40.29;101382.13;5119242;27;45515;-70
2023/09/28 11:04:37;;;;;;;;;4.50;4.25;;;;;24.86;40.29;101364.88;5118494;27;46803;-70
2023/09/28 11:07:03;;;;;;;;;7.25;3.25;;;;;25.05;40.45;101377.38;5118677;27;45300;-69
2023/09/28 11:09:29;;;;;;;;;3.75;3.25;;;;;25.53;39.23;101368.78;5119002;27;45381;-73
2023/09/28 11:11:55;;;;;;;;;3.00;2.00;;;;;26.31;38.05;101357.59;5120498;27;45406;-73
2023/09/28 11:14:27;;;;;;;;;4.00;2.25;;;;;26.33;38.26;101348.50;5120776;27;46019;-70
2023/09/28 11:16:53;;;;;;;;;10.50;8.25;;;;;26.33;37.94;101355.69;5120215;27;45420;-72
2023/09/28 11:19:20;;;;;;;;;66.00;51.25;;;;;26.84;37.88;101365.41;5136750;27;45340;-72
2023/09/28 11:21:45;;;;;;;;;73.50;56.75;;;;;28.17;36.41;101371.13;5120270;27;45321;-74
2023/09/28 11:24:16;;;;;;;;;32.33;26.67;;;;;28.81;34.85;101356.28;5118409;27;45202;-72
2023/09/28 11:26:42;;;;;;;;;13.00;10.00;;;;;29.33;33.76;101357.41;5104967;27;45462;-72
2023/09/28 11:29:09;;;;;;;;;5.00;4.60;;;;;30.73;32.01;101353.03;5118031;27;45438;-72